createdAt,value
2022-12-19T00:01:59.064Z,-0.20
2022-12-19T00:04:27.020Z,-0.20
2022-12-19T00:06:55.104Z,-0.20
2022-12-19T00:09:22.950Z,-0.20
2022-12-19T00:11:50.764Z,-0.10
2022-12-19T00:14:20.024Z,-0.10
2022-12-19T00:16:48.049Z,-0.10
2022-12-19T00:19:16.508Z,-0.10
2022-12-19T00:21:44.316Z,-0.10
2022-12-19T00:24:20.514Z,-0.10
2022-12-19T00:26:49.970Z,-0.10
2022-12-19T00:29:19.302Z,-0.10
2022-12-19T00:31:47.413Z,-0.10
2022-12-19T00:34:15.386Z,-0.10
2022-12-19T00:36:43.620Z,0.00
2022-12-19T00:39:11.645Z,0.00
2022-12-19T00:41:42.547Z,0.00
2022-12-19T00:44:12.799Z,0.00
2022-12-19T00:46:43.598Z,0.00
2022-12-19T00:49:18.167Z,0.00
2022-12-19T00:51:45.969Z,0.00
2022-12-19T00:54:13.763Z,0.00
2022-12-19T00:56:42.861Z,0.00
2022-12-19T00:59:11.037Z,0.00
2022-12-19T01:01:41.057Z,0.00
2022-12-19T01:04:30.743Z,0.10
2022-12-19T01:07:02.359Z,0.10
2022-12-19T01:09:31.340Z,0.10
2022-12-19T01:12:17.344Z,0.10
2022-12-19T01:14:45.180Z,0.10
2022-12-19T01:17:13.208Z,0.10
2022-12-19T01:19:44.546Z,0.10
2022-12-19T01:22:13.095Z,0.20
2022-12-19T01:24:41.214Z,0.20
2022-12-19T01:27:09.377Z,0.20
2022-12-19T01:29:41.802Z,0.20
2022-12-19T01:32:19.785Z,0.20
2022-12-19T01:34:48.947Z,0.20
2022-12-19T01:37:17.798Z,0.30
2022-12-19T01:39:46.109Z,0.30
2022-12-19T01:42:16.167Z,0.30
2022-12-19T01:45:34.387Z,0.30
2022-12-19T01:48:11.998Z,0.40
2022-12-19T01:50:56.217Z,0.40
2022-12-19T01:53:48.344Z,0.40
2022-12-19T01:56:18.611Z,0.40
2022-12-19T01:58:46.916Z,0.40
2022-12-19T02:01:15.878Z,0.50
2022-12-19T02:03:45.373Z,0.50
2022-12-19T02:06:16.807Z,0.50
2022-12-19T02:08:46.951Z,0.50
2022-12-19T02:11:14.799Z,0.50
2022-12-19T02:13:42.978Z,0.50
2022-12-19T02:16:24.157Z,0.50
2022-12-19T02:19:04.324Z,0.50
2022-12-19T02:21:45.876Z,0.50
2022-12-19T02:24:49.601Z,0.50
2022-12-19T02:27:41.827Z,0.60
2022-12-19T02:30:13.558Z,0.60
2022-12-19T02:33:01.106Z,0.60
2022-12-19T02:35:34.420Z,0.60
2022-12-19T02:38:13.265Z,0.60
2022-12-19T02:40:46.038Z,0.60
2022-12-19T02:43:18.808Z,0.70
2022-12-19T02:45:48.057Z,0.70
2022-12-19T02:48:19.688Z,0.70
2022-12-19T02:50:50.226Z,0.70
2022-12-19T02:53:22.417Z,0.70
2022-12-19T02:56:10.647Z,0.70
2022-12-19T02:58:49.102Z,0.70
2022-12-19T03:01:25.826Z,0.80
2022-12-19T03:04:07.083Z,0.80
2022-12-19T03:06:41.481Z,0.80
2022-12-19T03:09:15.084Z,0.80
2022-12-19T03:11:43.640Z,0.80
2022-12-19T03:14:15.385Z,0.80
2022-12-19T03:16:43.216Z,0.90
2022-12-19T03:19:15.072Z,0.80
2022-12-19T03:21:45.721Z,0.90
2022-12-19T03:24:14.925Z,0.90
2022-12-19T03:26:49.240Z,0.90
2022-12-19T03:29:22.449Z,0.90
2022-12-19T03:31:50.557Z,0.90
2022-12-19T03:34:24.597Z,0.90
2022-12-19T03:36:57.040Z,0.90
2022-12-19T03:39:27.789Z,0.90
2022-12-19T03:42:15.166Z,0.90
2022-12-19T03:44:44.112Z,1.00
2022-12-19T03:47:16.657Z,1.00
2022-12-19T03:49:46.947Z,1.00
2022-12-19T03:52:25.510Z,1.00
2022-12-19T03:55:01.871Z,1.00
2022-12-19T03:57:32.296Z,1.00
2022-12-19T04:00:06.486Z,1.00
2022-12-19T04:02:36.959Z,1.00
2022-12-19T04:05:12.050Z,1.00
2022-12-19T04:07:41.123Z,1.00
2022-12-19T04:10:13.101Z,1.00
2022-12-19T04:12:43.990Z,1.00
2022-12-19T04:15:12.616Z,1.00
2022-12-19T04:17:44.974Z,1.00
2022-12-19T04:20:16.445Z,1.00
2022-12-19T04:22:48.757Z,1.00
2022-12-19T04:25:21.551Z,1.00
2022-12-19T04:27:54.682Z,1.00
2022-12-19T04:30:22.613Z,1.00
2022-12-19T04:32:52.253Z,1.00
2022-12-19T04:35:21.375Z,1.00
2022-12-19T04:37:49.115Z,1.00
2022-12-19T04:40:16.992Z,1.00
2022-12-19T04:42:45.066Z,1.00
2022-12-19T04:45:12.995Z,1.00
2022-12-19T04:47:41.156Z,1.00
2022-12-19T04:50:09.896Z,1.00
2022-12-19T04:52:39.018Z,1.00
2022-12-19T04:55:07.915Z,1.00
2022-12-19T04:57:35.648Z,1.10
2022-12-19T05:00:06.936Z,1.10
2022-12-19T05:02:34.888Z,1.10
2022-12-19T05:05:02.667Z,1.10
2022-12-19T05:07:30.403Z,1.10
2022-12-19T05:09:59.430Z,1.10
2022-12-19T05:12:27.186Z,1.10
2022-12-19T05:14:54.980Z,1.10
2022-12-19T05:17:22.725Z,1.10
2022-12-19T05:19:50.419Z,1.10
2022-12-19T05:22:18.174Z,1.10
2022-12-19T05:24:45.911Z,1.10
2022-12-19T05:27:14.964Z,1.10
2022-12-19T05:29:42.694Z,1.10
2022-12-19T05:32:10.385Z,1.10
2022-12-19T05:34:38.082Z,1.10
2022-12-19T05:37:05.817Z,1.10
2022-12-19T05:39:33.550Z,1.10
2022-12-19T05:42:01.493Z,1.10
2022-12-19T05:44:30.523Z,1.10
2022-12-19T05:46:58.265Z,1.20
2022-12-19T05:49:26.009Z,1.20
2022-12-19T05:51:53.842Z,1.20
2022-12-19T05:54:21.741Z,1.20
2022-12-19T05:56:49.441Z,1.20
2022-12-19T05:59:17.137Z,1.20
2022-12-19T06:01:46.426Z,1.20
2022-12-19T06:04:14.232Z,1.20
2022-12-19T06:06:42.011Z,1.20
2022-12-19T06:09:09.826Z,1.30
2022-12-19T06:11:37.554Z,1.30
2022-12-19T06:14:05.288Z,1.30
2022-12-19T06:16:33.002Z,1.30
2022-12-19T06:19:02.054Z,1.30
2022-12-19T06:21:29.848Z,1.30
2022-12-19T06:23:57.744Z,1.40
2022-12-19T06:26:25.464Z,1.40
2022-12-19T06:28:54.205Z,1.40
2022-12-19T06:31:23.805Z,1.40
2022-12-19T06:33:52.804Z,1.40
2022-12-19T06:36:23.943Z,1.40
2022-12-19T06:38:52.466Z,1.40
2022-12-19T06:41:38.664Z,1.50
2022-12-19T06:44:08.094Z,1.50
2022-12-19T06:46:36.754Z,1.50
2022-12-19T06:49:05.335Z,1.50
2022-12-19T06:51:34.644Z,1.50
2022-12-19T06:54:02.649Z,1.60
2022-12-19T06:56:34.713Z,1.60
2022-12-19T06:59:02.699Z,1.60
2022-12-19T07:01:44.581Z,1.60
2022-12-19T07:04:15.097Z,1.70
2022-12-19T07:06:48.847Z,1.70
2022-12-19T07:09:17.172Z,1.70
2022-12-19T07:11:45.147Z,1.70
2022-12-19T07:14:12.936Z,1.70
2022-12-19T07:16:41.574Z,1.70
2022-12-19T07:19:10.891Z,1.70
2022-12-19T07:21:39.441Z,1.80
2022-12-19T07:24:09.944Z,1.70
2022-12-19T07:26:37.762Z,1.80
2022-12-19T07:29:05.850Z,1.80
2022-12-19T07:31:36.128Z,1.80
2022-12-19T07:34:03.932Z,1.90
2022-12-19T07:36:31.651Z,1.90
2022-12-19T07:38:59.408Z,1.90
2022-12-19T07:41:28.501Z,1.90
2022-12-19T07:43:56.210Z,1.90
2022-12-19T07:46:23.962Z,1.90
2022-12-19T07:48:51.729Z,1.90
2022-12-19T07:51:19.465Z,1.90
2022-12-19T07:53:47.664Z,2.00
2022-12-19T07:56:17.229Z,2.00
2022-12-19T07:58:46.468Z,2.00
2022-12-19T08:01:14.254Z,2.00
2022-12-19T08:03:42.019Z,2.00
2022-12-19T08:06:09.912Z,2.00
2022-12-19T08:08:38.088Z,2.00
2022-12-19T08:11:12.219Z,2.00
2022-12-19T08:13:46.197Z,2.10
2022-12-19T08:16:16.208Z,2.10
2022-12-19T08:18:44.259Z,2.10
2022-12-19T08:21:12.585Z,2.10
2022-12-19T08:23:40.657Z,2.10
2022-12-19T08:26:11.581Z,2.10
2022-12-19T08:28:39.579Z,2.20
2022-12-19T08:31:08.716Z,2.20
2022-12-19T08:33:38.244Z,2.20
2022-12-19T08:36:06.984Z,2.20
2022-12-19T08:38:35.345Z,2.20
2022-12-19T08:41:03.184Z,2.30
2022-12-19T08:43:31.379Z,2.30
2022-12-19T08:45:59.500Z,2.30
2022-12-19T08:48:27.684Z,2.40
2022-12-19T08:50:58.410Z,2.40
2022-12-19T08:53:27.000Z,2.40
2022-12-19T08:55:56.377Z,2.40
2022-12-19T08:58:24.371Z,2.50
2022-12-19T09:00:57.657Z,2.50
2022-12-19T09:03:56.172Z,2.50
2022-12-19T09:06:19.742Z,2.50
2022-12-19T09:08:47.814Z,2.60
2022-12-19T09:11:17.006Z,2.60
2022-12-19T09:13:45.589Z,2.70
2022-12-19T09:16:15.635Z,2.70
2022-12-19T09:18:48.724Z,2.70
2022-12-19T09:21:17.371Z,2.70
2022-12-19T09:23:49.690Z,2.80
2022-12-19T09:26:18.078Z,2.80
2022-12-19T09:28:47.102Z,2.80
2022-12-19T09:31:16.530Z,2.90
2022-12-19T09:33:44.584Z,2.90
2022-12-19T09:36:14.233Z,2.90
2022-12-19T09:38:42.368Z,2.90
2022-12-19T09:41:38.133Z,3.00
2022-12-19T09:44:16.445Z,3.00
2022-12-19T09:46:50.885Z,3.00
2022-12-19T09:49:22.226Z,3.00
2022-12-19T09:51:57.881Z,3.00
2022-12-19T09:54:31.800Z,3.00
2022-12-19T09:57:04.995Z,3.00
2022-12-19T09:59:41.495Z,3.10
2022-12-19T10:02:28.239Z,3.10
2022-12-19T10:05:14.996Z,3.10
2022-12-19T10:08:08.890Z,3.10
2022-12-19T10:12:40.854Z,3.10
2022-12-19T10:13:54.022Z,3.10
2022-12-19T10:16:31.889Z,3.20
2022-12-19T10:19:03.874Z,3.20
2022-12-19T10:22:15.854Z,3.20
2022-12-19T10:24:41.389Z,3.20
2022-12-19T10:27:17.546Z,3.20
2022-12-19T10:30:02.868Z,3.20
2022-12-19T10:32:37.848Z,3.20
2022-12-19T10:35:13.895Z,3.20
2022-12-19T10:37:49.519Z,3.20
2022-12-19T10:40:28.563Z,3.20
2022-12-19T10:43:01.855Z,3.20
2022-12-19T10:45:47.087Z,3.20
2022-12-19T10:48:18.622Z,3.30
2022-12-19T10:50:50.336Z,3.30
2022-12-19T10:53:27.221Z,3.30
2022-12-19T10:55:56.911Z,3.30
2022-12-19T10:58:27.169Z,3.30
2022-12-19T11:01:06.066Z,3.30
2022-12-19T11:03:35.161Z,3.30
2022-12-19T11:06:04.737Z,3.30
2022-12-19T11:08:34.529Z,3.40
2022-12-19T11:14:57.670Z,3.40
2022-12-19T11:18:27.698Z,3.40
2022-12-19T11:29:26.320Z,3.50
2022-12-19T11:29:40.282Z,3.50
2022-12-19T11:30:07.046Z,3.60
2022-12-19T11:30:48.370Z,3.50
2022-12-19T11:34:23.403Z,3.60
2022-12-19T11:36:56.683Z,3.60
2022-12-19T11:39:33.432Z,3.60
2022-12-19T11:42:07.877Z,3.70
2022-12-19T11:44:42.011Z,3.70
2022-12-19T11:47:21.738Z,3.70
2022-12-19T11:49:56.171Z,3.70
2022-12-19T11:53:03.374Z,3.80
2022-12-19T11:55:29.117Z,3.80
2022-12-19T11:57:57.020Z,3.80
2022-12-19T12:00:25.933Z,3.80
2022-12-19T12:03:26.949Z,3.90
2022-12-19T12:05:58.257Z,3.90
2022-12-19T12:11:31.031Z,3.90
2022-12-19T12:21:00.267Z,3.90
2022-12-19T12:21:05.353Z,4.00
2022-12-19T12:31:17.025Z,4.00
2022-12-19T12:31:26.457Z,4.00
2022-12-19T12:31:28.142Z,4.00
2022-12-19T12:31:45.492Z,4.00
2022-12-19T12:32:02.750Z,4.00
2022-12-19T12:35:31.528Z,4.10
2022-12-19T12:38:37.728Z,4.10
2022-12-19T12:41:45.877Z,4.10
2022-12-19T12:44:14.180Z,4.10
2022-12-19T12:46:47.493Z,4.20
2022-12-19T12:49:28.398Z,4.20
2022-12-19T12:51:56.852Z,4.20
2022-12-19T12:54:35.285Z,4.20
2022-12-19T12:57:04.950Z,4.20
2022-12-19T12:59:32.939Z,4.30
2022-12-19T13:02:08.304Z,4.30
2022-12-19T13:04:41.862Z,4.30
2022-12-19T13:07:25.443Z,4.40
2022-12-19T13:10:06.984Z,4.40
2022-12-19T13:13:04.370Z,4.40
2022-12-19T13:15:42.663Z,4.40
2022-12-19T13:18:37.610Z,4.40
2022-12-19T13:21:08.749Z,4.40
2022-12-19T13:23:48.668Z,4.40
2022-12-19T13:26:47.953Z,4.40
2022-12-19T13:29:35.032Z,4.40
2022-12-19T13:32:11.733Z,4.40
2022-12-19T13:34:39.662Z,4.40
2022-12-19T13:39:48.076Z,4.40
2022-12-19T13:40:30.562Z,4.40
2022-12-19T13:43:21.791Z,4.40
2022-12-19T13:45:53.313Z,4.40
2022-12-19T13:48:29.590Z,4.40
2022-12-19T13:50:58.408Z,4.40
2022-12-19T13:53:28.687Z,4.40
2022-12-19T13:55:59.974Z,4.40
2022-12-19T13:58:30.600Z,4.40
2022-12-19T14:01:04.316Z,4.40
2022-12-19T14:03:39.644Z,4.40
2022-12-19T14:06:18.090Z,4.40
2022-12-19T14:08:47.963Z,4.40
2022-12-19T14:12:14.316Z,4.40
2022-12-19T14:14:46.375Z,4.40
2022-12-19T14:17:17.412Z,4.40
2022-12-19T14:19:47.938Z,4.40
2022-12-19T14:22:25.789Z,4.40
2022-12-19T14:24:55.478Z,4.40
2022-12-19T14:28:21.104Z,4.40
2022-12-19T14:30:36.816Z,4.40
2022-12-19T14:33:45.482Z,4.40
2022-12-19T14:36:05.799Z,4.50
2022-12-19T14:39:23.785Z,4.40
2022-12-19T14:42:01.468Z,4.40
2022-12-19T14:51:51.398Z,4.40
2022-12-19T14:54:08.025Z,4.40
2022-12-19T14:54:24.628Z,4.40
2022-12-19T14:54:39.877Z,4.40
2022-12-19T14:59:02.678Z,4.40
2022-12-19T15:01:33.234Z,4.40
2022-12-19T15:04:47.873Z,4.40
2022-12-19T15:07:07.280Z,4.40
2022-12-19T15:10:58.596Z,4.30
2022-12-19T15:14:48.490Z,4.30
2022-12-19T15:15:46.084Z,4.30
2022-12-19T15:18:23.365Z,4.30
2022-12-19T15:20:51.777Z,4.30
2022-12-19T15:23:22.569Z,4.30
2022-12-19T15:26:07.863Z,4.30
2022-12-19T15:28:40.915Z,4.30
2022-12-19T15:31:19.318Z,4.30
2022-12-19T15:34:32.321Z,4.30
2022-12-19T15:36:34.857Z,4.30
2022-12-19T15:39:04.616Z,4.30
2022-12-19T15:41:32.755Z,4.30
2022-12-19T15:44:11.953Z,4.30
2022-12-19T15:46:44.747Z,4.30
2022-12-19T15:49:16.958Z,4.30
2022-12-19T15:51:44.952Z,4.30
2022-12-19T15:54:47.083Z,4.30
2022-12-19T15:57:02.076Z,4.30
2022-12-19T15:59:38.289Z,4.30
2022-12-19T16:02:16.790Z,4.30
2022-12-19T16:04:45.158Z,4.30
2022-12-19T16:07:16.229Z,4.30
2022-12-19T16:09:45.733Z,4.30
2022-12-19T16:12:16.461Z,4.30
2022-12-19T16:14:44.813Z,4.30
2022-12-19T16:17:17.404Z,4.30
2022-12-19T16:19:45.115Z,4.40
2022-12-19T16:22:19.331Z,4.40
2022-12-19T16:24:48.411Z,4.40
2022-12-19T16:27:23.257Z,4.40
2022-12-19T16:29:51.211Z,4.40
2022-12-19T16:32:19.535Z,4.40
2022-12-19T16:34:47.338Z,4.40
2022-12-19T16:37:15.306Z,4.50
2022-12-19T16:39:43.596Z,4.50
2022-12-19T16:42:16.725Z,4.50
2022-12-19T16:44:46.539Z,4.50
2022-12-19T16:47:16.669Z,4.50
2022-12-19T16:49:44.958Z,4.50
2022-12-19T16:52:13.219Z,4.50
2022-12-19T16:54:41.080Z,4.50
2022-12-19T16:57:20.780Z,4.50
2022-12-19T16:59:49.413Z,4.60
2022-12-19T17:02:38.499Z,4.60
2022-12-19T17:05:07.746Z,4.50
2022-12-19T17:07:35.897Z,4.60
2022-12-19T17:10:03.700Z,4.60
2022-12-19T17:12:32.844Z,4.60
2022-12-19T17:15:00.545Z,4.60
2022-12-19T17:17:28.323Z,4.60
2022-12-19T17:19:56.043Z,4.60
2022-12-19T17:22:23.793Z,4.60
2022-12-19T17:24:51.511Z,4.60
2022-12-19T17:27:20.888Z,4.70
2022-12-19T17:29:50.003Z,4.60
2022-12-19T17:32:23.712Z,4.70
2022-12-19T17:34:52.806Z,4.70
2022-12-19T17:37:20.590Z,4.70
2022-12-19T17:39:49.281Z,4.70
2022-12-19T17:42:22.490Z,4.70
2022-12-19T17:44:51.994Z,4.70
2022-12-19T17:47:21.226Z,4.70
2022-12-19T17:49:49.644Z,4.80
2022-12-19T17:52:19.316Z,4.80
2022-12-19T17:54:47.284Z,4.80
2022-12-19T17:57:16.211Z,4.80
2022-12-19T17:59:46.038Z,4.90
2022-12-19T18:02:22.001Z,4.90
2022-12-19T18:04:50.459Z,4.80
2022-12-19T18:07:19.182Z,4.90
2022-12-19T18:09:47.105Z,4.90
2022-12-19T18:12:15.624Z,4.90
2022-12-19T18:14:43.393Z,4.90
2022-12-19T18:17:12.517Z,4.90
2022-12-19T18:19:41.695Z,4.90
2022-12-19T18:22:13.480Z,4.90
2022-12-19T18:24:41.263Z,4.90
2022-12-19T18:27:09.045Z,4.90
2022-12-19T18:29:36.954Z,4.90
2022-12-19T18:32:04.932Z,4.90
2022-12-19T18:34:35.425Z,5.00
2022-12-19T18:37:05.402Z,4.90
2022-12-19T18:39:34.021Z,5.00
2022-12-19T18:42:01.956Z,5.00
2022-12-19T18:44:29.634Z,5.00
2022-12-19T18:46:57.404Z,5.00
2022-12-19T18:49:25.121Z,5.00
2022-12-19T18:51:52.857Z,5.00
2022-12-19T18:54:23.401Z,5.00
2022-12-19T18:56:51.815Z,5.10
2022-12-19T18:59:19.955Z,5.10
2022-12-19T19:01:48.329Z,5.10
2022-12-19T19:04:17.602Z,5.10
2022-12-19T19:06:51.754Z,5.10
2022-12-19T19:09:22.463Z,5.10
2022-12-19T19:11:50.217Z,5.10
2022-12-19T19:14:17.930Z,5.10
2022-12-19T19:16:45.779Z,5.10
2022-12-19T19:19:17.410Z,5.10
2022-12-19T19:21:45.692Z,5.10
2022-12-19T19:24:16.924Z,5.10
2022-12-19T19:26:46.057Z,5.10
2022-12-19T19:29:14.824Z,5.20
2022-12-19T19:31:53.369Z,5.20
2022-12-19T19:34:25.175Z,5.20
2022-12-19T19:36:56.670Z,5.20
2022-12-19T19:39:25.412Z,5.20
2022-12-19T19:41:56.061Z,5.20
2022-12-19T19:44:23.843Z,5.30
2022-12-19T19:46:51.733Z,5.30
2022-12-19T19:49:21.073Z,5.30
2022-12-19T19:51:48.775Z,5.30
2022-12-19T19:54:16.537Z,5.30
2022-12-19T19:56:44.293Z,5.30
2022-12-19T19:59:13.455Z,5.30
2022-12-19T20:01:41.223Z,5.40
2022-12-19T20:04:09.098Z,5.40
2022-12-19T20:06:36.919Z,5.40
2022-12-19T20:09:04.937Z,5.40
2022-12-19T20:11:32.732Z,5.40
2022-12-19T20:14:00.466Z,5.40
2022-12-19T20:16:29.574Z,5.40
2022-12-19T20:18:57.276Z,5.40
2022-12-19T20:21:25.047Z,5.40
2022-12-19T20:23:52.736Z,5.40
2022-12-19T20:26:20.714Z,5.50
2022-12-19T20:28:51.139Z,5.50
2022-12-19T20:31:19.895Z,5.50
2022-12-19T20:33:50.378Z,5.50
2022-12-19T20:36:18.470Z,5.50
2022-12-19T20:38:46.174Z,5.50
2022-12-19T20:41:14.598Z,5.50
2022-12-19T20:43:42.740Z,5.60
2022-12-19T20:46:12.214Z,5.60
2022-12-19T20:48:40.902Z,5.60
2022-12-19T20:51:10.720Z,5.60
2022-12-19T20:53:39.803Z,5.60
2022-12-19T20:56:09.081Z,5.60
2022-12-19T20:58:38.351Z,5.60
2022-12-19T21:01:08.452Z,5.60
2022-12-19T21:03:37.050Z,5.60
2022-12-19T21:06:05.848Z,5.70
2022-12-19T21:08:35.657Z,5.70
2022-12-19T21:11:05.677Z,5.70
2022-12-19T21:13:33.794Z,5.70
2022-12-19T21:16:04.224Z,5.70
2022-12-19T21:18:32.033Z,5.80
2022-12-19T21:21:00.131Z,5.80
2022-12-19T21:23:28.557Z,5.80
2022-12-19T21:26:00.468Z,5.80
2022-12-19T21:28:28.505Z,5.90
2022-12-19T21:30:57.932Z,5.90
2022-12-19T21:33:25.812Z,5.90
2022-12-19T21:35:53.532Z,5.90
2022-12-19T21:38:21.501Z,5.90
2022-12-19T21:40:49.293Z,5.90
2022-12-19T21:43:18.322Z,5.90
2022-12-19T21:45:46.036Z,6.00
2022-12-19T21:48:13.729Z,6.00
2022-12-19T21:50:41.516Z,6.00
2022-12-19T21:53:10.624Z,6.00
2022-12-19T21:55:38.304Z,6.00
2022-12-19T21:58:06.047Z,6.00
2022-12-19T22:00:35.106Z,6.00
2022-12-19T22:03:14.010Z,6.10
2022-12-19T22:05:42.748Z,6.10
2022-12-19T22:08:11.604Z,6.00
2022-12-19T22:10:39.408Z,6.10
2022-12-19T22:13:07.114Z,6.10
2022-12-19T22:15:37.535Z,6.10
2022-12-19T22:18:05.561Z,6.10
2022-12-19T22:20:33.276Z,6.10
2022-12-19T22:23:01.100Z,6.10
2022-12-19T22:25:28.794Z,6.10
2022-12-19T22:27:56.621Z,6.10
2022-12-19T22:30:24.331Z,6.20
2022-12-19T22:32:53.428Z,6.20
2022-12-19T22:35:21.130Z,6.20
2022-12-19T22:37:48.905Z,6.20
2022-12-19T22:40:16.830Z,6.20
2022-12-19T22:42:44.543Z,6.30
2022-12-19T22:45:12.700Z,6.30
2022-12-19T22:47:42.517Z,6.30
2022-12-19T22:50:11.896Z,6.30
2022-12-19T22:52:39.765Z,6.30
2022-12-19T22:55:08.411Z,6.30
2022-12-19T22:57:36.118Z,6.30
2022-12-19T23:00:06.000Z,6.30
2022-12-19T23:02:34.003Z,6.40
2022-12-19T23:05:01.862Z,6.40
2022-12-19T23:07:30.938Z,6.40
2022-12-19T23:09:58.608Z,6.40
2022-12-19T23:12:26.514Z,6.40
2022-12-19T23:14:54.306Z,6.40
2022-12-19T23:17:22.116Z,6.40
2022-12-19T23:19:49.843Z,6.40
2022-12-19T23:22:17.546Z,6.50
2022-12-19T23:24:48.049Z,6.50
2022-12-19T23:27:16.190Z,6.50
2022-12-19T23:29:44.094Z,6.50
2022-12-19T23:32:12.131Z,6.50
2022-12-19T23:34:39.904Z,6.50
2022-12-19T23:37:12.299Z,6.50
2022-12-19T23:39:40.351Z,6.60
2022-12-19T23:42:09.400Z,6.60
2022-12-19T23:44:37.477Z,6.60
2022-12-19T23:47:05.268Z,6.60
2022-12-19T23:49:33.901Z,6.60
2022-12-19T23:52:01.640Z,6.60
2022-12-19T23:54:29.450Z,6.60
2022-12-19T23:56:57.184Z,6.60
2022-12-19T23:59:26.268Z,6.60
